Time;durP1;ratioP1;P1;durP2;ratioP2;P2;SDS_P1;SDS_P2;PMS_P1;PMS_P2;Temp;Humidity;BMP_temperature;BMP_pressure;BME280_temperature;BME280_humidity;BME280_pressure;Samples;Min_cycle;Max_cycle;Signal;HPM_P1;HPM_P2
2023/03/26 00:01:04;;;;;;;1.70;0.30;;;9.40;99.90;9.30;99399.00;;;;4983255;28;94000;-62
2023/03/26 00:03:32;;;;;;;0.27;0.20;;;9.40;99.90;9.30;99403.00;;;;4990447;28;93678;-62
2023/03/26 00:06:15;;;;;;;3.27;0.60;;;9.30;99.90;9.20;99410.00;;;;4983693;28;93033;-63
2023/03/26 00:08:44;;;;;;;9.00;0.93;;;9.40;99.90;9.20;99406.00;;;;4984544;28;92984;-64
2023/03/26 00:11:13;;;;;;;0.57;0.40;;;9.30;99.90;9.30;99403.00;;;;4991563;28;94959;-63
2023/03/26 00:13:40;;;;;;;2.37;0.80;;;9.30;99.90;9.30;99406.00;;;;4981957;28;113624;-64
2023/03/26 00:16:06;;;;;;;0.20;0.20;;;9.30;99.90;9.30;99423.00;;;;4990701;28;93646;-63
2023/03/26 00:18:33;;;;;;;0.47;0.30;;;9.30;99.90;9.30;99420.00;;;;4990743;28;101589;-63
2023/03/26 00:21:03;;;;;;;0.40;0.40;;;9.40;99.90;9.20;99421.00;;;;4984086;28;93330;-64
2023/03/26 00:23:31;;;;;;;0.23;0.23;;;9.30;99.90;9.20;99420.00;;;;4983344;28;111072;-63
2023/03/26 00:25:56;;;;;;;3.97;0.70;;;9.30;99.90;9.20;99427.00;;;;4991524;28;105126;-65
2023/03/26 00:28:23;;;;;;;5.37;0.93;;;9.30;99.90;9.20;99435.00;;;;4992630;28;106794;-63
2023/03/26 00:30:56;;;;;;;0.20;0.20;;;9.30;99.90;9.20;99424.00;;;;4990449;28;114843;-64
2023/03/26 00:33:23;;;;;;;0.67;0.47;;;9.20;99.90;9.20;99433.00;;;;4990220;28;106845;-62
2023/03/26 00:35:59;;;;;;;1.13;0.60;;;9.30;99.90;9.20;99412.00;;;;4991164;28;110355;-64
2023/03/26 00:38:27;;;;;;;1.60;0.53;;;9.20;99.90;9.20;99422.00;;;;4992742;28;92909;-62
2023/03/26 00:40:53;;;;;;;0.40;0.37;;;9.20;99.90;9.20;99426.00;;;;4989158;28;93971;-63
2023/03/26 00:43:22;;;;;;;0.20;0.20;;;9.30;99.90;9.20;99424.00;;;;4989092;28;122681;-64
2023/03/26 00:45:51;;;;;;;0.43;0.20;;;9.20;99.90;9.20;99430.00;;;;4992172;28;92846;-65
2023/03/26 00:48:22;;;;;;;1.23;0.30;;;9.20;99.90;9.20;99414.00;;;;4991034;28;92812;-63
2023/03/26 00:50:49;;;;;;;0.50;0.47;;;9.30;99.90;9.20;99417.00;;;;4991120;28;98173;-64
2023/03/26 00:53:16;;;;;;;0.63;0.63;;;9.20;99.90;9.20;99424.00;;;;4989910;28;93264;-64
2023/03/26 00:55:45;;;;;;;0.77;0.60;;;9.30;99.90;9.20;99427.00;;;;4992109;28;92860;-64
2023/03/26 00:58:12;;;;;;;2.27;0.70;;;9.20;99.90;9.20;99409.00;;;;4987785;28;92839;-64
2023/03/26 01:00:49;;;;;;;3.00;0.70;;;9.20;99.90;9.20;99427.00;;;;4991555;28;95128;-64
2023/03/26 01:03:17;;;;;;;0.23;0.20;;;9.20;99.90;9.20;99424.00;;;;4983789;28;94222;-65
2023/03/26 01:05:54;;;;;;;0.50;0.23;;;9.30;99.90;9.20;99418.00;;;;4992824;28;92842;-64
2023/03/26 01:08:38;;;;;;;2.33;0.70;;;9.30;99.90;9.10;99427.00;;;;4973340;28;97988;-65
2023/03/26 01:11:19;;;;;;;1.40;0.50;;;9.20;99.90;9.10;99431.00;;;;4970424;28;94218;-64
2023/03/26 01:13:59;;;;;;;0.20;0.20;;;9.20;99.90;9.10;99420.00;;;;4974148;28;92871;-63
2023/03/26 01:16:36;;;;;;;0.53;0.33;;;9.20;99.90;9.10;99413.00;;;;4972350;28;92974;-63
2023/03/26 01:19:09;;;;;;;0.70;0.60;;;9.20;99.90;9.10;99428.00;;;;4990490;28;92216;-64
2023/03/26 01:21:35;;;;;;;0.83;0.50;;;9.20;99.90;9.10;99410.00;;;;4969314;28;92959;-63
2023/03/26 01:24:08;;;;;;;0.60;0.40;;;9.20;99.90;9.10;99423.00;;;;4991498;28;92830;-65
2023/03/26 01:26:57;;;;;;;0.63;0.63;;;9.20;99.90;9.10;99429.00;;;;4989512;28;95643;-64
2023/03/26 01:29:43;;;;;;;4.50;0.77;;;9.20;99.90;9.10;99425.00;;;;4980845;28;99639;-65
2023/03/26 01:32:36;;;;;;;0.17;0.17;;;9.20;99.90;9.00;99420.00;;;;4991043;28;93403;-65
2023/03/26 01:35:33;;;;;;;0.50;0.27;;;9.10;99.90;9.00;99422.00;;;;4989002;28;92936;-64
2023/03/26 01:38:21;;;;;;;1.67;0.73;;;9.10;99.90;9.00;99430.00;;;;4988927;28;92833;-65
2023/03/26 01:40:53;;;;;;;0.40;0.40;;;9.10;99.90;9.00;99421.00;;;;4997589;27;92878;-66
2023/03/26 01:43:27;;;;;;;0.50;0.40;;;9.10;99.90;9.00;99428.00;;;;5000488;27;106167;-63
2023/03/26 01:45:54;;;;;;;1.80;0.63;;;9.10;99.90;9.00;99410.00;;;;4983303;28;92345;-64
2023/03/26 01:48:27;;;;;;;0.43;0.30;;;9.00;99.90;8.90;99420.00;;;;4989082;28;92998;-64
2023/03/26 01:50:55;;;;;;;0.50;0.50;;;9.00;99.90;9.00;99426.00;;;;4991925;27;101928;-64
2023/03/26 01:53:20;;;;;;;2.27;0.40;;;9.10;99.90;8.90;99412.00;;;;4987933;28;95003;-63
2023/03/26 01:56:40;;;;;;;0.77;0.50;;;9.00;99.90;8.80;99413.00;;;;4981228;28;110125;-64
2023/03/26 01:59:43;;;;;;;0.33;0.33;;;9.00;99.90;8.80;99409.00;;;;4985527;28;93106;-63
2023/03/26 02:02:21;;;;;;;1.27;0.40;;;8.90;99.90;8.80;99415.00;;;;5002618;27;94402;-64
2023/03/26 02:05:09;;;;;;;0.30;0.30;;;8.80;99.90;8.70;99415.00;;;;4986998;28;99852;-64
2023/03/26 02:07:49;;;;;;;0.60;0.47;;;8.80;99.90;8.70;99412.00;;;;5005513;27;93397;-65
2023/03/26 02:10:32;;;;;;;0.60;0.50;;;8.80;99.90;8.60;99415.00;;;;5002770;27;92888;-64
2023/03/26 02:12:59;;;;;;;0.57;0.40;;;8.70;99.90;8.60;99411.00;;;;4990199;28;98528;-64
2023/03/26 02:15:28;;;;;;;0.63;0.50;;;8.70;99.90;8.60;99412.00;;;;4992403;27;93061;-63
2023/03/26 02:17:53;;;;;;;0.77;0.60;;;8.70;99.90;8.60;99415.00;;;;4991161;28;122568;-64
2023/03/26 02:20:20;;;;;;;1.20;0.70;;;8.70;99.90;8.60;99413.00;;;;4982469;27;93660;-65
2023/03/26 02:22:46;;;;;;;0.97;0.47;;;8.70;99.90;8.60;99415.00;;;;4990274;28;92847;-65
2023/03/26 02:25:19;;;;;;;1.40;0.83;;;8.70;99.90;8.60;99416.00;;;;4989095;28;94410;-65
2023/03/26 02:27:45;;;;;;;1.03;0.30;;;8.70;99.90;8.60;99414.00;;;;4988526;28;93628;-64
2023/03/26 02:30:24;;;;;;;0.97;0.40;;;8.60;99.90;8.50;99409.00;;;;4988095;27;101190;-63
2023/03/26 02:32:53;;;;;;;0.73;0.60;;;8.60;99.90;8.40;99414.00;;;;4991130;27;92953;-64
2023/03/26 02:35:20;;;;;;;0.50;0.50;;;8.60;99.90;8.40;99423.00;;;;4982213;28;93847;-64
2023/03/26 02:37:49;;;;;;;0.90;0.80;;;8.50;99.90;8.40;99429.00;;;;4991167;28;93901;-64
2023/03/26 02:40:17;;;;;;;0.70;0.40;;;8.50;99.90;8.40;99415.00;;;;4983026;27;92922;-63
2023/03/26 02:42:43;;;;;;;0.30;0.30;;;8.50;99.90;8.40;99413.00;;;;4990580;28;92820;-64
2023/03/26 02:45:09;;;;;;;1.00;0.60;;;8.50;99.90;8.40;99417.00;;;;4982904;28;94219;-63
2023/03/26 02:47:34;;;;;;;0.50;0.23;;;8.70;99.90;8.40;99403.00;;;;4993271;28;94371;-64
2023/03/26 02:50:02;;;;;;;0.30;0.30;;;8.50;99.90;8.40;99418.00;;;;4982494;28;109795;-64
2023/03/26 02:52:28;;;;;;;0.70;0.70;;;8.40;99.90;8.30;99421.00;;;;4990299;28;92907;-63
2023/03/26 02:54:54;;;;;;;0.77;0.60;;;8.40;99.90;8.20;99427.00;;;;4985502;28;93092;-64
2023/03/26 02:57:20;;;;;;;0.20;0.20;;;8.40;99.90;8.20;99424.00;;;;4990192;28;93818;-65
2023/03/26 02:59:46;;;;;;;0.53;0.37;;;8.30;99.90;8.10;99419.00;;;;4985691;28;93055;-65
2023/03/26 03:02:12;;;;;;;0.87;0.23;;;8.20;99.90;8.00;99426.00;;;;4990450;28;106749;-64
2023/03/26 03:04:38;;;;;;;1.23;0.73;;;8.20;99.90;8.00;99425.00;;;;4982172;28;94015;-64
2023/03/26 03:07:04;;;;;;;1.03;0.40;;;8.20;99.90;8.00;99423.00;;;;4992481;28;109795;-64
2023/03/26 03:09:30;;;;;;;2.17;0.80;;;8.10;99.90;7.90;99419.00;;;;4989854;28;93812;-64
2023/03/26 03:11:56;;;;;;;2.43;0.37;;;8.10;99.90;8.00;99411.00;;;;4992165;27;108648;-64
2023/03/26 03:14:21;;;;;;;0.40;0.33;;;8.10;99.90;7.90;99419.00;;;;4990601;28;122130;-63
2023/03/26 03:16:47;;;;;;;0.73;0.73;;;8.10;99.90;7.90;99414.00;;;;4991486;28;123554;-64
2023/03/26 03:19:13;;;;;;;0.53;0.53;;;8.00;99.90;7.90;99423.00;;;;4993392;27;102374;-63
2023/03/26 03:21:40;;;;;;;1.70;0.50;;;8.00;99.90;7.90;99412.00;;;;4993454;28;96490;-64
2023/03/26 03:24:06;;;;;;;1.73;0.70;;;8.00;99.90;7.90;99426.00;;;;4992001;28;93024;-65
2023/03/26 03:26:33;;;;;;;0.93;0.40;;;7.90;99.90;7.80;99430.00;;;;4993753;28;93134;-63
2023/03/26 03:28:59;;;;;;;0.40;0.40;;;8.00;99.90;7.80;99418.00;;;;4993290;28;92981;-63
2023/03/26 03:31:26;;;;;;;0.43;0.20;;;8.10;99.90;7.80;99418.00;;;;4993175;28;92790;-63
2023/03/26 03:33:51;;;;;;;0.53;0.40;;;7.90;99.90;7.70;99421.00;;;;4991943;28;125428;-63
2023/03/26 03:36:23;;;;;;;0.67;0.53;;;8.00;99.90;7.70;99418.00;;;;4987173;28;123534;-64
2023/03/26 03:38:49;;;;;;;1.70;0.63;;;8.30;99.90;7.70;99424.00;;;;4988240;28;93020;-63
2023/03/26 03:41:17;;;;;;;0.67;0.67;;;7.80;99.90;7.70;99425.00;;;;4990867;28;93025;-64
2023/03/26 03:43:44;;;;;;;0.80;0.60;;;7.80;99.90;7.70;99418.00;;;;4990275;27;94012;-63
2023/03/26 03:46:09;;;;;;;0.73;0.40;;;7.70;99.90;7.70;99423.00;;;;4993084;28;92937;-64
2023/03/26 03:48:37;;;;;;;0.70;0.37;;;7.80;99.90;7.70;99410.00;;;;4993031;27;109166;-64
2023/03/26 03:51:03;;;;;;;0.50;0.50;;;7.80;99.90;7.70;99423.00;;;;4993624;28;92426;-63
2023/03/26 03:53:35;;;;;;;0.83;0.70;;;7.80;99.90;7.60;99410.00;;;;4988780;28;102977;-64
2023/03/26 03:56:01;;;;;;;1.60;0.40;;;7.70;99.90;7.60;99423.00;;;;4989908;28;92932;-63
2023/03/26 03:58:29;;;;;;;0.27;0.27;;;7.80;99.90;7.70;99421.00;;;;4990767;28;108372;-62
2023/03/26 04:00:59;;;;;;;0.87;0.40;;;7.70;99.90;7.70;99422.00;;;;4990856;28;92885;-63
2023/03/26 04:03:29;;;;;;;1.57;0.33;;;7.80;99.90;7.70;99420.00;;;;4989976;28;93220;-63
2023/03/26 04:05:55;;;;;;;0.40;0.30;;;7.80;99.90;7.70;99427.00;;;;4986054;28;93528;-63
2023/03/26 04:08:23;;;;;;;0.37;0.33;;;7.80;99.90;7.80;99423.00;;;;4991877;28;109430;-64
2023/03/26 04:10:49;;;;;;;0.33;0.30;;;7.80;99.90;7.80;99425.00;;;;4987804;28;92926;-63
2023/03/26 04:13:16;;;;;;;0.70;0.53;;;7.80;99.90;7.80;99424.00;;;;4988035;28;93311;-63
2023/03/26 04:15:43;;;;;;;0.67;0.50;;;7.90;99.90;7.70;99411.00;;;;4993761;28;100098;-64
2023/03/26 04:18:10;;;;;;;0.60;0.60;;;7.80;99.90;7.70;99409.00;;;;4992802;28;92761;-64
2023/03/26 04:20:45;;;;;;;3.37;0.57;;;7.90;99.90;7.60;99422.00;;;;4992307;28;92841;-64
2023/03/26 04:23:16;;;;;;;0.40;0.30;;;7.80;99.90;7.60;99420.00;;;;4993064;28;94108;-63
2023/03/26 04:25:47;;;;;;;0.60;0.57;;;7.70;99.90;7.50;99412.00;;;;4991236;28;93842;-63
2023/03/26 04:28:30;;;;;;;0.30;0.20;;;7.70;99.90;7.50;99413.00;;;;4991408;28;97581;-63
2023/03/26 04:30:59;;;;;;;0.23;0.23;;;7.60;99.90;7.50;99418.00;;;;4973064;28;93145;-63
2023/03/26 04:33:28;;;;;;;0.50;0.40;;;7.80;99.90;7.50;99421.00;;;;4972584;28;93551;-63
2023/03/26 04:35:55;;;;;;;0.67;0.50;;;7.60;99.90;7.40;99406.00;;;;4971134;28;104346;-63
2023/03/26 04:38:21;;;;;;;0.20;0.20;;;7.60;99.90;7.40;99406.00;;;;4986488;28;92780;-63
2023/03/26 04:40:47;;;;;;;0.50;0.50;;;8.00;99.90;7.30;99410.00;;;;4989872;28;92249;-64
2023/03/26 04:43:16;;;;;;;2.27;0.47;;;7.50;99.90;7.30;99415.00;;;;4989199;28;110037;-63
2023/03/26 04:45:44;;;;;;;0.50;0.40;;;7.40;99.90;7.40;99412.00;;;;4987118;28;93700;-64
2023/03/26 04:48:13;;;;;;;0.40;0.40;;;7.50;99.90;7.40;99415.00;;;;4987221;28;93602;-64
2023/03/26 04:50:44;;;;;;;1.23;0.80;;;7.50;99.90;7.40;99406.00;;;;4990514;28;92982;-65
2023/03/26 04:53:17;;;;;;;0.30;0.30;;;7.50;99.90;7.40;99412.00;;;;4984552;28;94946;-65
2023/03/26 04:55:52;;;;;;;0.43;0.43;;;7.50;99.90;7.40;99409.00;;;;4973496;28;93318;-64
2023/03/26 04:58:18;;;;;;;0.30;0.30;;;7.50;99.90;7.40;99409.00;;;;4973752;27;92983;-63
2023/03/26 05:00:43;;;;;;;0.60;0.60;;;7.50;99.90;7.40;99417.00;;;;4989631;28;108496;-64
2023/03/26 05:03:12;;;;;;;3.50;0.93;;;7.50;99.90;7.40;99414.00;;;;4989878;28;123990;-63
2023/03/26 05:05:39;;;;;;;0.30;0.30;;;7.50;99.90;7.30;99412.00;;;;4982928;28;93698;-64
2023/03/26 05:08:05;;;;;;;0.43;0.40;;;7.50;99.90;7.30;99411.00;;;;4991776;28;92974;-64
2023/03/26 05:10:31;;;;;;;0.63;0.63;;;7.50;99.90;7.30;99415.00;;;;4987392;28;107800;-64
2023/03/26 05:12:57;;;;;;;0.83;0.30;;;7.50;99.90;7.30;99416.00;;;;4981724;28;94302;-64
2023/03/26 05:15:22;;;;;;;0.63;0.63;;;7.90;99.90;7.30;99411.00;;;;4989289;28;123359;-64
2023/03/26 05:17:48;;;;;;;1.87;0.77;;;7.40;99.90;7.30;99423.00;;;;4992445;28;93728;-64
2023/03/26 05:20:20;;;;;;;1.17;0.80;;;7.90;99.90;7.30;99421.00;;;;4980305;28;108686;-64
2023/03/26 05:22:47;;;;;;;3.20;0.80;;;7.40;99.90;7.30;99420.00;;;;4989196;28;93594;-64
2023/03/26 05:25:13;;;;;;;0.20;0.20;;;7.90;99.90;7.40;99420.00;;;;4990184;28;93533;-63
2023/03/26 05:27:39;;;;;;;1.60;0.40;;;7.50;99.90;7.40;99426.00;;;;4991742;28;92741;-63
2023/03/26 05:30:06;;;;;;;0.23;0.23;;;7.50;99.90;7.50;99418.00;;;;4990123;28;92057;-65
2023/03/26 05:32:32;;;;;;;0.53;0.50;;;7.60;99.90;7.60;99415.00;;;;4989844;28;94113;-64
2023/03/26 05:34:58;;;;;;;1.60;0.60;;;7.60;99.90;7.60;99429.00;;;;4990819;28;92951;-64
2023/03/26 05:37:24;;;;;;;1.33;0.70;;;7.80;99.90;7.70;99414.00;;;;4981849;28;108936;-65
2023/03/26 05:39:56;;;;;;;0.50;0.40;;;7.80;99.90;7.80;99427.00;;;;4989248;28;108666;-64
2023/03/26 05:42:22;;;;;;;9.23;0.40;;;7.90;99.90;7.90;99426.00;;;;4987856;28;93710;-62
2023/03/26 05:44:48;;;;;;;0.97;0.60;;;7.90;99.90;7.90;99434.00;;;;4982451;28;97285;-63
2023/03/26 05:47:13;;;;;;;1.20;0.53;;;8.00;99.90;8.00;99429.00;;;;4989373;28;100850;-62
2023/03/26 05:49:39;;;;;;;0.63;0.60;;;8.00;99.90;8.00;99422.00;;;;4990503;27;108481;-64
2023/03/26 05:52:05;;;;;;;1.07;0.50;;;8.10;99.90;8.10;99436.00;;;;4989806;28;94252;-63
2023/03/26 05:54:31;;;;;;;0.80;0.70;;;8.20;99.90;8.20;99430.00;;;;4986864;28;94914;-64
2023/03/26 05:56:56;;;;;;;1.70;0.97;;;8.20;99.90;8.30;99428.00;;;;4990751;28;109429;-62
2023/03/26 05:59:22;;;;;;;0.33;0.30;;;8.50;99.90;8.30;99426.00;;;;4991286;28;104103;-64
2023/03/26 06:01:49;;;;;;;1.60;0.53;;;8.40;99.90;8.40;99431.00;;;;4986377;28;94481;-64
2023/03/26 06:04:19;;;;;;;0.83;0.40;;;8.40;99.90;8.40;99428.00;;;;4978422;28;93970;-64
2023/03/26 06:06:44;;;;;;;2.10;0.60;;;8.50;99.90;8.50;99429.00;;;;4987440;28;110569;-63
2023/03/26 06:09:13;;;;;;;2.17;0.83;;;8.50;99.90;8.50;99434.00;;;;4982784;28;93024;-63
2023/03/26 06:11:39;;;;;;;0.43;0.43;;;8.60;99.90;8.60;99430.00;;;;4988611;28;93252;-63
2023/03/26 06:14:06;;;;;;;2.20;0.70;;;8.70;99.90;8.60;99439.00;;;;4989282;28;93138;-65
2023/03/26 06:16:32;;;;;;;0.97;0.70;;;8.70;99.90;8.60;99444.00;;;;4991375;27;93278;-65
2023/03/26 06:18:58;;;;;;;1.07;0.80;;;8.70;99.90;8.60;99442.00;;;;4989022;28;109618;-65
2023/03/26 06:21:25;;;;;;;5.20;0.60;;;8.70;99.90;8.70;99434.00;;;;4979336;28;104230;-64
2023/03/26 06:23:51;;;;;;;0.83;0.40;;;8.60;99.90;8.70;99435.00;;;;4986320;27;93980;-65
2023/03/26 06:26:17;;;;;;;1.40;0.60;;;8.80;99.90;8.80;99444.00;;;;4984064;28;93939;-64
2023/03/26 06:28:42;;;;;;;6.63;0.47;;;8.80;99.90;8.80;99432.00;;;;4977775;28;93070;-63
2023/03/26 06:31:08;;;;;;;0.70;0.70;;;8.90;99.90;8.90;99434.00;;;;4985385;28;122592;-64
2023/03/26 06:33:34;;;;;;;0.33;0.33;;;8.90;99.90;9.00;99451.00;;;;4986198;28;95820;-63
2023/03/26 06:35:59;;;;;;;2.83;0.77;;;8.90;99.90;9.00;99443.00;;;;4985603;28;109133;-65
2023/03/26 06:38:25;;;;;;;0.30;0.30;;;9.00;99.90;9.10;99435.00;;;;4982719;28;93120;-63
2023/03/26 06:40:51;;;;;;;0.43;0.43;;;9.10;99.90;9.10;99435.00;;;;4963948;28;113641;-64
2023/03/26 06:43:17;;;;;;;0.20;0.20;;;9.20;99.90;9.20;99434.00;;;;4964110;28;123071;-63
2023/03/26 06:45:42;;;;;;;0.57;0.43;;;9.20;99.90;9.20;99430.00;;;;4955905;28;110067;-65
2023/03/26 06:48:08;;;;;;;0.83;0.33;;;9.20;99.90;9.20;99424.00;;;;4962158;28;108546;-63
2023/03/26 06:50:34;;;;;;;0.47;0.40;;;9.30;99.90;9.40;99426.00;;;;4957191;28;94222;-63
2023/03/26 06:53:00;;;;;;;1.10;0.70;;;9.40;99.90;9.60;99429.00;;;;4961904;28;94250;-64
2023/03/26 06:55:26;;;;;;;3.17;0.93;;;9.60;99.90;9.90;99432.00;;;;4955275;28;93041;-64
2023/03/26 06:57:53;;;;;;;1.50;0.53;;;9.80;99.90;10.10;99430.00;;;;4958615;28;92853;-63
2023/03/26 07:00:20;;;;;;;0.73;0.60;;;10.00;99.90;10.20;99420.00;;;;4953278;28;93106;-62
2023/03/26 07:02:46;;;;;;;1.03;0.60;;;10.20;99.90;10.50;99427.00;;;;4961212;28;113413;-64
2023/03/26 07:05:13;;;;;;;1.40;0.77;;;10.40;99.90;10.60;99423.00;;;;4972763;28;93750;-63
2023/03/26 07:07:39;;;;;;;3.10;0.87;;;10.60;99.90;10.80;99437.00;;;;4983227;28;92035;-64
2023/03/26 07:10:06;;;;;;;0.33;0.30;;;10.80;99.90;11.00;99432.00;;;;4982803;28;93440;-63
2023/03/26 07:12:31;;;;;;;1.70;0.63;;;11.00;99.90;11.10;99422.00;;;;4963016;28;104105;-62
2023/03/26 07:15:00;;;;;;;0.53;0.37;;;11.10;99.90;11.20;99422.00;;;;4969320;28;109808;-63
2023/03/26 07:17:26;;;;;;;1.20;0.67;;;11.20;99.90;11.20;99420.00;;;;4968919;28;93211;-64
2023/03/26 07:19:53;;;;;;;1.60;0.60;;;11.30;99.90;11.20;99426.00;;;;4984901;27;121652;-62
2023/03/26 07:22:22;;;;;;;0.27;0.27;;;11.30;99.90;11.20;99422.00;;;;4986097;28;93763;-63
2023/03/26 07:24:49;;;;;;;0.60;0.57;;;11.30;99.90;11.20;99427.00;;;;4986021;28;104739;-63
2023/03/26 07:27:45;;;;;;;0.83;0.60;;;11.30;99.90;11.20;99428.00;;;;4986701;28;92887;-62
2023/03/26 07:30:44;;;;;;;4.30;0.57;;;11.30;99.90;11.20;99432.00;;;;4988250;28;93935;-63
2023/03/26 07:33:20;;;;;;;0.33;0.33;;;11.30;99.90;11.20;99422.00;;;;4950460;28;92850;-63
2023/03/26 07:36:03;;;;;;;0.63;0.37;;;11.20;99.90;11.10;99424.00;;;;4972986;28;92992;-63
2023/03/26 07:38:59;;;;;;;1.97;1.00;;;11.20;99.90;11.00;99425.00;;;;4967828;28;101723;-63
2023/03/26 07:41:55;;;;;;;0.40;0.37;;;11.10;99.90;10.90;99427.00;;;;4987887;28;93817;-65
2023/03/26 07:44:47;;;;;;;0.80;0.40;;;11.00;99.90;10.90;99425.00;;;;4980875;28;115681;-62
2023/03/26 07:47:28;;;;;;;0.50;0.50;;;10.90;99.90;10.80;99414.00;;;;4984941;28;93223;-64
2023/03/26 07:49:56;;;;;;;1.23;0.57;;;10.90;99.90;10.80;99423.00;;;;4964514;28;92995;-64
2023/03/26 07:52:23;;;;;;;0.70;0.40;;;10.80;99.90;10.70;99423.00;;;;4985239;28;94096;-63
2023/03/26 07:54:49;;;;;;;0.40;0.40;;;10.80;99.90;10.70;99426.00;;;;4984983;28;94007;-62
2023/03/26 07:58:00;;;;;;;0.50;0.40;;;10.70;99.90;10.70;99415.00;;;;4985922;28;100507;-64
2023/03/26 08:00:36;;;;;;;2.83;0.67;;;10.80;99.90;10.80;99406.00;;;;4987763;28;92285;-64
2023/03/26 08:03:27;;;;;;;0.73;0.57;;;10.80;99.90;10.80;99410.00;;;;4981057;28;115327;-63
2023/03/26 08:06:19;;;;;;;0.30;0.30;;;10.80;99.90;10.90;99419.00;;;;4983454;28;114403;-63
2023/03/26 08:09:25;;;;;;;0.63;0.57;;;10.90;99.90;11.00;99404.00;;;;4984283;28;93759;-64
2023/03/26 08:12:36;;;;;;;0.13;0.13;;;11.10;99.90;11.10;99405.00;;;;4962276;28;96778;-64
2023/03/26 08:15:28;;;;;;;1.70;0.70;;;11.10;99.90;11.20;99407.00;;;;4962923;28;93851;-63
2023/03/26 08:18:10;;;;;;;3.33;0.87;;;11.20;99.90;11.30;99404.00;;;;4985291;28;93000;-63
2023/03/26 08:20:46;;;;;;;1.07;0.50;;;11.30;99.90;11.40;99404.00;;;;4982557;28;93057;-64
2023/03/26 08:23:58;;;;;;;1.60;0.50;;;11.40;99.90;11.40;99407.00;;;;4966751;28;101834;-63
2023/03/26 08:26:57;;;;;;;1.00;0.90;;;11.40;99.90;11.50;99401.00;;;;4969151;28;93202;-63
2023/03/26 08:29:33;;;;;;;0.93;0.83;;;11.50;99.90;11.50;99395.00;;;;4985833;28;92765;-64
2023/03/26 08:32:00;;;;;;;1.17;0.50;;;11.50;99.90;11.50;99390.00;;;;4968795;28;92946;-64
2023/03/26 08:34:26;;;;;;;0.50;0.50;;;11.50;99.90;11.60;99389.00;;;;4985314;28;92793;-63
2023/03/26 08:36:51;;;;;;;1.60;0.87;;;11.60;99.90;11.60;99395.00;;;;4983841;28;123828;-63
2023/03/26 08:39:21;;;;;;;1.00;0.40;;;11.60;99.90;11.60;99397.00;;;;4984808;28;122805;-66
2023/03/26 08:42:03;;;;;;;0.93;0.30;;;11.60;99.90;11.50;99384.00;;;;4985175;28;93016;-63
2023/03/26 08:44:59;;;;;;;0.60;0.50;;;11.60;99.90;11.50;99400.00;;;;4968110;28;93121;-63
2023/03/26 08:48:18;;;;;;;0.40;0.40;;;11.50;99.90;11.50;99385.00;;;;4985587;28;93025;-63
2023/03/26 08:50:58;;;;;;;0.53;0.53;;;11.50;99.90;11.50;99393.00;;;;4985508;28;109927;-64
2023/03/26 08:54:02;;;;;;;1.87;0.60;;;11.60;99.90;11.50;99395.00;;;;4986041;28;92817;-62
2023/03/26 08:57:11;;;;;;;0.87;0.50;;;11.60;99.90;11.40;99404.00;;;;4972625;28;92381;-63
2023/03/26 09:00:10;;;;;;;0.83;0.30;;;11.50;99.90;11.40;99394.00;;;;4987488;28;93784;-63
2023/03/26 09:03:20;;;;;;;1.47;0.50;;;11.40;99.90;11.20;99398.00;;;;4989805;28;93221;-63
2023/03/26 09:06:25;;;;;;;0.73;0.37;;;11.40;99.90;11.20;99387.00;;;;4958275;28;93853;-64
2023/03/26 09:09:32;;;;;;;1.80;0.70;;;11.30;99.90;11.20;99395.00;;;;4923799;28;93281;-63
2023/03/26 09:12:48;;;;;;;7.20;0.97;;;11.30;99.90;11.10;99386.00;;;;4984487;28;93077;-64
2023/03/26 09:16:07;;;;;;;0.80;0.80;;;11.20;99.90;11.10;99387.00;;;;4985982;28;92992;-66
2023/03/26 09:19:37;;;;;;;0.80;0.80;;;11.20;99.90;11.10;99392.00;;;;4985110;28;96780;-64
2023/03/26 09:22:43;;;;;;;0.67;0.67;;;11.20;99.90;11.10;99390.00;;;;4987507;28;92894;-62
2023/03/26 09:25:47;;;;;;;0.70;0.57;;;11.20;99.90;11.00;99383.00;;;;4981942;28;94064;-66
2023/03/26 09:28:49;;;;;;;1.00;0.70;;;11.10;99.90;10.90;99383.00;;;;4982510;28;115230;-62
2023/03/26 09:31:23;;;;;;;1.47;1.30;;;11.00;99.90;11.00;99373.00;;;;4978899;27;92984;-64
2023/03/26 09:34:29;;;;;;;1.17;0.77;;;11.00;99.90;11.00;99371.00;;;;4982039;28;93028;-63
2023/03/26 09:37:35;;;;;;;1.20;0.77;;;11.10;99.90;11.20;99378.00;;;;4966346;28;93971;-63
2023/03/26 09:40:16;;;;;;;7.13;1.70;;;11.20;99.90;11.40;99374.00;;;;4976715;28;93526;-63
2023/03/26 09:42:55;;;;;;;5.00;1.80;;;11.30;99.90;11.40;99374.00;;;;4987390;28;92866;-63
2023/03/26 09:46:02;;;;;;;1.50;1.03;;;11.40;99.90;11.40;99383.00;;;;4984385;28;92914;-64
2023/03/26 09:48:52;;;;;;;3.30;1.33;;;11.40;99.90;11.30;99372.00;;;;4984414;28;93151;-64
2023/03/26 09:51:46;;;;;;;2.23;0.90;;;11.30;99.90;11.20;99371.00;;;;4962965;28;93554;-62
2023/03/26 09:54:59;;;;;;;1.03;0.77;;;11.20;99.90;11.10;99374.00;;;;4974619;28;92958;-64
2023/03/26 09:58:20;;;;;;;1.33;0.90;;;11.20;99.90;11.20;99368.00;;;;4987151;28;92290;-64
2023/03/26 10:01:04;;;;;;;4.57;1.37;;;11.20;99.90;11.30;99379.00;;;;4968442;28;93186;-65
2023/03/26 10:04:27;;;;;;;1.20;1.00;;;11.20;99.90;11.40;99363.00;;;;4976896;28;93099;-64
2023/03/26 10:07:37;;;;;;;1.30;1.07;;;11.40;99.90;11.40;99370.00;;;;4978946;28;93668;-64
2023/03/26 10:10:39;;;;;;;0.80;0.80;;;11.70;99.90;11.50;99356.00;;;;4977192;28;92938;-64
2023/03/26 10:13:28;;;;;;;1.10;0.73;;;11.50;99.90;11.60;99351.00;;;;4984571;28;92931;-64
2023/03/26 10:16:45;;;;;;;10.33;2.47;;;11.60;99.90;11.70;99352.00;;;;4985700;28;93536;-64
2023/03/26 10:19:50;;;;;;;3.80;1.07;;;11.60;99.90;11.80;99346.00;;;;4975968;28;92914;-65
2023/03/26 10:23:15;;;;;;;3.60;1.00;;;11.80;99.90;11.80;99351.00;;;;4938472;28;102618;-65
2023/03/26 10:26:09;;;;;;;2.03;1.10;;;11.90;99.90;11.80;99349.00;;;;4983828;27;98891;-65
2023/03/26 10:28:52;;;;;;;1.37;1.23;;;11.90;99.90;11.80;99353.00;;;;4983841;28;94142;-64
2023/03/26 10:31:26;;;;;;;1.53;0.93;;;11.80;99.90;11.80;99348.00;;;;4986007;28;92977;-65
2023/03/26 10:34:12;;;;;;;0.80;0.80;;;11.80;99.90;11.70;99342.00;;;;4981359;28;93228;-65
2023/03/26 10:37:06;;;;;;;1.27;1.00;;;11.70;99.90;11.70;99348.00;;;;4980923;28;93838;-64
2023/03/26 10:40:04;;;;;;;1.17;0.77;;;11.70;99.90;11.80;99341.00;;;;4981312;28;93300;-64
2023/03/26 10:43:18;;;;;;;3.90;0.83;;;11.80;99.90;11.90;99329.00;;;;4969512;28;92901;-64
2023/03/26 10:46:14;;;;;;;2.60;0.90;;;11.80;99.90;12.00;99338.00;;;;4986388;28;92881;-64
2023/03/26 10:49:06;;;;;;;1.17;0.93;;;12.00;99.20;12.20;99336.00;;;;4984924;28;93178;-64
2023/03/26 10:51:50;;;;;;;1.83;1.23;;;12.10;99.30;12.50;99331.00;;;;4963382;28;96784;-65
2023/03/26 10:54:53;;;;;;;1.27;1.17;;;12.30;99.00;12.80;99328.00;;;;4982422;27;93223;-64
2023/03/26 10:57:37;;;;;;;1.03;0.77;;;12.70;98.20;13.10;99327.00;;;;4987624;28;92321;-63
2023/03/26 11:00:23;;;;;;;1.00;0.87;;;12.90;96.90;13.20;99331.00;;;;4988884;27;95181;-63
2023/03/26 11:03:15;;;;;;;1.33;0.73;;;13.10;96.30;13.30;99313.00;;;;4988926;28;94156;-63
2023/03/26 11:06:28;;;;;;;3.77;1.00;;;13.20;95.50;13.30;99305.00;;;;4988024;28;94670;-63
2023/03/26 11:09:20;;;;;;;0.97;0.53;;;13.30;94.80;13.30;99314.00;;;;4985137;28;95967;-63
2023/03/26 11:12:22;;;;;;;1.63;0.75;;;13.20;94.80;13.20;99310.00;;;;4970477;28;93245;-63
2023/03/26 11:15:26;;;;;;;0.57;0.53;;;13.20;94.90;13.20;99310.00;;;;4988406;28;93583;-63
2023/03/26 11:18:26;;;;;;;1.63;1.00;;;13.20;94.70;13.20;99306.00;;;;4989354;28;92707;-64
2023/03/26 11:21:22;;;;;;;1.00;0.90;;;13.20;94.40;13.20;99304.00;;;;4986832;28;101475;-64
2023/03/26 11:24:10;;;;;;;2.17;1.17;;;13.20;93.80;13.30;99290.00;;;;4967937;28;109362;-63
2023/03/26 11:26:57;;;;;;;1.87;1.37;;;13.20;94.70;13.70;99293.00;;;;4987481;28;105850;-62
2023/03/26 11:29:56;;;;;;;0.88;0.88;;;13.50;94.30;14.40;99279.00;;;;4967437;28;93024;-64
2023/03/26 11:32:45;;;;;;;0.70;0.65;;;14.00;93.50;14.90;99279.00;;;;4988467;28;93120;-64
2023/03/26 11:35:39;;;;;;;0.93;0.70;;;14.50;90.50;15.20;99274.00;;;;4969505;28;94769;-63
2023/03/26 11:38:18;;;;;;;1.45;0.93;;;14.90;90.10;15.20;99270.00;;;;4985874;28;93453;-62
2023/03/26 11:40:49;;;;;;;0.80;0.77;;;15.00;87.10;15.00;99262.00;;;;4982067;28;93480;-64
2023/03/26 11:43:21;;;;;;;1.25;0.77;;;15.00;87.10;14.90;99258.00;;;;4986724;28;92918;-63
2023/03/26 11:45:50;;;;;;;0.82;0.65;;;14.80;84.00;14.70;99260.00;;;;4986069;28;112808;-64
2023/03/26 11:48:30;;;;;;;0.98;0.70;;;14.70;83.40;14.50;99269.00;;;;4968786;28;92932;-62